Latest Weather Observations for Cape Leeuwin

IDW60801

Issued at 9:34 am WST Thursday 17 August 2017 (issued every 30 minutes, with the page automatically refreshed every 10 minutes)

About weather observations | Map of weather stations | Latest weather observations for WA | Other Formats
Station Details ID: 009518 Name: CAPE LEEUWIN Lat: -34.37 Lon: 115.14 Height: 13.0 m
Data from the previous 72 hours. | See also: Recent months at Cape Leeuwin
Date/Time
WST
Temp
°C
App
Temp
°C
Dew
Point
°C
Rel
Hum
%
Delta-T
°C
Wind Press
QNH
hPa
Press
MSL
hPa
Rain since
9am
mm
Dir  Spd
km/h
Gust
km/h
Spd
kts
Gust
kts
17/09:30am 13.3 6.5 7.8 69 2.7 WNW 33 39 18 21 1017.8 1017.8 0.0
17/09:00am 13.5 7.2 7.6 67 2.9 WNW 30 35 16 19 1017.9 1017.9 1.0
17/08:30am 12.9 5.8 8.2 73 2.3 WNW 35 43 19 23 1018.0 1018.0 1.0
17/08:00am 12.3 5.6 8.2 76 2.0 W 33 39 18 21 1017.8 1017.8 1.0
17/07:30am 12.4 5.6 7.9 74 2.2 W 33 44 18 24 1017.8 1017.8 0.8
17/07:23am 12.2 4.6 7.7 74 2.2 W 37 46 20 25 1017.7 1017.7 0.8
17/07:00am 12.7 7.8 8.5 75 2.1 WNW 24 33 13 18 1017.6 1017.6 0.8
17/06:52am 13.0 7.7 8.4 73 2.3 WNW 26 33 14 18 1017.5 1017.5 0.8
17/06:30am 12.8 5.2 7.5 70 2.6 W 37 43 20 23 1017.5 1017.5 0.8
17/06:00am 13.0 5.3 5.5 60 3.5 W 35 41 19 22 1017.3 1017.3 0.8
17/05:30am 12.8 6.0 7.5 70 2.6 W 33 43 18 23 1017.2 1017.2 0.8
17/05:00am 12.6 5.7 7.2 69 2.6 WSW 33 41 18 22 1017.3 1017.3 0.8
17/04:30am 13.0 5.3 5.5 60 3.5 W 35 46 19 25 1017.1 1017.1 0.8
17/04:00am 13.0 6.0 6.0 62 3.3 WNW 32 41 17 22 1017.3 1017.3 0.8
17/03:30am 13.0 4.8 5.0 58 3.7 W 37 46 20 25 1017.3 1017.3 0.8
17/03:00am 13.2 5.7 6.5 64 3.2 W 35 43 19 23 1017.6 1017.6 0.8
17/02:30am 12.9 4.1 3.8 54 4.1 W 39 46 21 25 1017.7 1017.7 0.8
17/02:00am 13.0 4.0 4.5 56 3.9 W 41 56 22 30 1017.9 1017.9 0.8
17/01:30am 12.8 3.7 4.2 56 3.9 W 41 48 22 26 1018.0 1018.0 0.8
17/01:00am 12.8 3.6 5.5 61 3.4 W 43 54 23 29 1018.1 1018.1 0.8
17/12:30am 12.8 4.0 5.5 61 3.4 W 41 48 22 26 1018.1 1018.1 0.8
17/12:00am 12.5 3.2 5.9 64 3.1 W 44 52 24 28 1018.1 1018.1 0.8
 
Date/Time
WST
Temp
°C
App
Temp
°C
Dew
Point
°C
Rel
Hum
%
Delta-T
°C
Wind Press
QNH
hPa
Press
MSL
hPa
Rain since
9am
mm
Dir  Spd
km/h
Gust
km/h
Spd
kts
Gust
kts
16/11:30pm 12.3 3.1 5.4 63 3.2 W 43 54 23 29 1018.3 1018.3 0.8
16/11:20pm 11.9 1.8 5.7 66 2.9 WNW 48 59 26 32 1018.4 1018.4 0.8
16/11:08pm 12.1 1.9 7.1 71 2.4 W 50 69 27 37 1018.1 1018.1 0.8
16/11:04pm 12.8 4.3 7.0 68 2.8 W 41 65 22 35 1018.2 1018.2 0.8
16/11:00pm 12.3 4.7 5.9 65 3.0 W 35 44 19 24 1018.4 1018.4 0.8
16/10:30pm 11.6 3.4 6.7 72 2.3 W 39 59 21 32 1019.0 1019.0 0.8
16/10:19pm 12.1 4.1 7.3 72 2.3 W 39 59 21 32 1018.8 1018.8 0.4
16/10:00pm 13.2 3.9 5.2 58 3.7 W 43 50 23 27 1018.7 1018.7 0.2
16/09:30pm 13.1 2.9 3.2 51 4.4 W 46 56 25 30 1018.8 1018.8 0.2
16/09:00pm 13.1 3.6 4.8 57 3.8 W 44 54 24 29 1018.9 1018.9 0.2
16/08:30pm 13.0 3.0 4.2 55 4.0 WSW 46 59 25 32 1018.9 1018.9 0.2
16/08:00pm 12.7 3.0 3.8 54 4.0 WSW 44 54 24 29 1018.8 1018.8 0.2
16/07:30pm 12.7 2.7 4.1 56 3.9 WSW 46 57 25 31 1018.5 1018.5 0.2
16/07:00pm 12.4 1.9 3.9 56 3.8 WSW 48 61 26 33 1018.5 1018.5 0.2
16/06:30pm 11.6 1.3 6.3 70 2.5 W 50 65 27 35 1018.1 1018.1 0.2
16/06:00pm 13.0 2.6 4.2 55 4.0 WSW 48 61 26 33 1017.7 1017.7 0.2
16/05:30pm 12.8 2.2 5.0 59 3.6 WSW 50 61 27 33 1017.5 1017.5 0.2
16/05:00pm 12.8 0.9 4.2 56 3.9 WSW 56 67 30 36 1017.4 1017.4 0.2
16/04:30pm 12.3 1.6 6.4 67 2.8 WSW 52 63 28 34 1017.5 1017.5 0.2
16/04:04pm 12.6 0.9 3.1 52 4.2 WSW 54 76 29 41 1017.0 1017.0 0.2
16/04:00pm 13.2 1.4 2.8 49 4.6 WSW 54 69 29 37 1017.1 1017.1 0.2
16/03:30pm 13.6 2.0 3.9 52 4.4 WSW 54 67 29 36 1017.0 1017.0 0.2
16/03:00pm 13.7 2.0 5.1 56 4.0 W 56 69 30 37 1016.4 1016.4 0.2
16/02:30pm 14.2 2.8 4.7 53 4.4 W 54 69 29 37 1016.3 1016.3 0.2
16/02:00pm 13.6 0.4 2.4 46 4.9 WSW 61 72 33 39 1016.2 1016.2 0.2
16/01:30pm 13.5 0.7 4.3 53 4.2 W 61 80 33 43 1016.0 1016.0 0.2
16/01:03pm 13.0 2.1 5.5 60 3.5 WSW 52 72 28 39 1015.9 1015.9 0.2
16/01:00pm 13.1 2.7 6.1 62 3.3 WSW 50 65 27 35 1016.0 1016.0 0.2
16/12:30pm 12.4 0.6 5.5 63 3.2 WSW 57 76 31 41 1016.4 1016.4 0.2
16/12:04pm 13.5 1.5 4.6 55 4.1 W 57 78 31 42 1016.3 1016.3 0.2
16/12:00pm 13.4 1.6 5.0 57 3.9 W 56 65 30 35 1016.5 1016.5 0.2
16/11:30am 13.4 0.4 3.6 51 4.4 W 61 72 33 39 1016.4 1016.4 0.0
16/11:03am 12.3 1.5 6.1 66 2.9 WSW 52 78 28 42 1016.6 1016.6 0.0
16/11:00am 12.7 2.4 6.6 66 2.9 WSW 50 67 27 36 1016.8 1016.8 0.0
16/10:43am 11.8 -1.0 6.3 69 2.6 WSW 63 82 34 44 1016.5 1016.5 0.0
16/10:30am 13.7 1.6 4.3 53 4.3 W 57 72 31 39 1016.1 1016.1 0.0
16/10:00am 13.3 1.2 3.2 50 4.5 W 56 69 30 37 1016.0 1016.0 0.0
16/09:30am 13.2 0.6 3.6 52 4.3 W 59 72 32 39 1015.9 1015.9 0.0
16/09:00am 12.7 -0.3 5.4 61 3.4 W 63 74 34 40 1015.6 1015.6 3.4
16/08:41am 12.9 1.0 5.4 60 3.5 WSW 57 80 31 43 1015.3 1015.3 3.4
16/08:30am 13.2 0.9 5.3 58 3.7 WSW 59 74 32 40 1015.5 1015.5 3.4
16/08:03am 12.2 -0.9 4.8 60 3.4 WSW 63 82 34 44 1015.5 1015.5 3.4
16/08:00am 12.0 -2.2 5.3 63 3.1 WSW 69 82 37 44 1015.5 1015.5 3.4
16/07:45am 12.1 -0.7 6.6 69 2.6 WSW 63 89 34 48 1015.0 1015.0 3.4
16/07:30am 12.6 -1.0 2.2 49 4.5 WSW 63 78 34 42 1014.9 1014.9 3.4
16/07:00am 12.5 -0.4 5.7 63 3.2 WSW 63 74 34 40 1014.6 1014.6 3.4
16/06:30am 12.7 -0.9 4.3 56 3.8 WSW 65 80 35 43 1014.1 1014.1 3.4
16/06:00am 12.7 -0.9 4.1 56 3.9 W 65 78 35 42 1014.1 1014.1 3.4
16/05:30am 12.9 1.0 5.4 60 3.5 W 57 70 31 38 1013.9 1013.9 3.4
16/05:00am 12.7 0.2 6.1 64 3.1 W 61 74 33 40 1013.8 1013.8 3.4
16/04:45am 12.7 0.7 6.6 66 2.9 W 59 87 32 47 1013.7 1013.7 3.4
16/04:30am 12.9 1.3 4.1 55 4.0 W 54 69 29 37 1013.7 1013.7 3.4
16/04:00am 12.6 -0.3 1.9 48 4.6 W 59 70 32 38 1013.8 1013.8 3.4
16/03:30am 13.1 1.5 5.6 60 3.5 W 56 67 30 36 1013.4 1013.4 3.4
16/03:12am 12.9 1.9 3.2 51 4.3 W 50 69 27 37 1013.6 1013.6 3.4
16/03:00am 12.8 0.2 3.4 53 4.2 WSW 59 70 32 38 1013.7 1013.7 3.4
16/02:30am 12.8 2.5 4.7 58 3.7 W 48 59 26 32 1013.8 1013.8 3.4
16/02:00am 12.7 1.9 4.1 56 3.9 W 50 65 27 35 1013.9 1013.9 3.4
16/01:30am 12.8 1.3 4.5 57 3.8 WSW 54 65 29 35 1014.0 1014.0 3.4
16/01:00am 12.8 1.1 5.5 61 3.4 WSW 56 69 30 37 1014.0 1014.0 3.4
16/12:46am 12.8 1.1 5.5 61 3.4 WSW 56 74 30 40 1013.9 1013.9 3.4
16/12:30am 13.1 2.5 7.1 67 2.9 WSW 52 63 28 34 1013.9 1013.9 3.4
16/12:00am 13.3 3.2 7.6 68 2.8 WSW 50 63 27 34 1013.7 1013.7 3.4
 
Date/Time
WST
Temp
°C
App
Temp
°C
Dew
Point
°C
Rel
Hum
%
Delta-T
°C
Wind Press
QNH
hPa
Press
MSL
hPa
Rain since
9am
mm
Dir  Spd
km/h
Gust
km/h
Spd
kts
Gust
kts
15/11:30pm 13.3 2.7 8.5 72 2.4 WSW 54 67 29 36 1013.8 1013.8 3.4
15/11:02pm 13.1 2.6 7.4 68 2.8 WSW 52 70 28 38 1013.8 1013.8 3.4
15/11:00pm 13.4 3.4 7.9 69 2.7 W 50 65 27 35 1013.8 1013.8 3.4
15/10:30pm 13.0 2.2 9.9 81 1.6 WSW 57 70 31 38 1013.9 1013.9 3.4
15/10:00pm 13.2 2.7 10.3 82 1.5 W 56 67 30 36 1013.8 1013.8 3.2
15/09:34pm 12.5 3.3 10.8 89 0.9 WSW 50 69 27 37 1014.2 1014.2 2.8
15/09:30pm 13.0 2.7 10.9 87 1.1 W 56 72 30 39 1014.0 1014.0 1.2
15/09:19pm 13.2 2.6 10.1 81 1.6 W 56 74 30 40 1013.6 1013.6 1.2
15/09:00pm 13.7 2.7 9.2 74 2.3 W 57 74 31 40 1013.7 1013.7 0.8
15/08:30pm 13.0 2.3 10.3 84 1.4 W 57 72 31 39 1014.2 1014.2 0.8
15/08:26pm 13.6 3.5 10.3 80 1.7 WNW 54 72 29 39 1014.2 1014.2 0.8
15/08:00pm 13.8 4.0 8.6 71 2.6 W 50 65 27 35 1014.5 1014.5 0.6
15/07:30pm 13.5 4.1 8.7 73 2.4 W 48 61 26 33 1014.5 1014.5 0.6
15/07:05pm 12.8 3.0 8.6 75 2.1 W 50 69 27 37 1014.7 1014.7 0.6
15/07:00pm 13.6 2.9 8.2 70 2.7 W 54 69 29 37 1014.6 1014.6 0.4
15/06:33pm 13.3 2.5 7.8 69 2.7 W 54 72 29 39 1014.7 1014.7 0.4
15/06:30pm 13.1 2.0 8.0 71 2.5 W 56 72 30 39 1014.7 1014.7 0.4
15/06:27pm 13.6 2.9 7.9 68 2.8 W 54 72 29 39 1014.5 1014.5 0.4
15/06:00pm 13.8 4.0 7.2 64 3.2 W 48 57 26 31 1014.4 1014.4 0.4
15/05:30pm 13.6 2.0 6.5 62 3.4 W 57 67 31 36 1014.0 1014.0 0.4
15/05:00pm 13.4 2.4 6.8 64 3.2 W 54 61 29 33 1014.0 1014.0 0.4
15/04:39pm 13.1 2.8 6.6 64 3.1 W 50 70 27 38 1013.9 1013.9 0.4
15/04:30pm 13.2 2.2 6.8 65 3.1 W 54 61 29 33 1014.0 1014.0 0.4
15/04:10pm 13.2 2.9 8.2 71 2.5 W 52 70 28 38 1013.7 1013.7 0.4
15/04:00pm 13.6 2.8 7.7 67 2.9 W 54 65 29 35 1013.8 1013.8 0.4
15/03:30pm 13.4 0.6 6.5 63 3.3 W 63 74 34 40 1013.9 1013.9 0.4
15/03:00pm 12.8 2.7 8.8 76 2.0 W 52 69 28 37 1013.6 1013.6 0.4
15/02:30pm 13.6 3.1 7.2 65 3.1 W 52 59 28 32 1013.4 1013.4 0.0
15/02:02pm 13.7 3.2 9.0 73 2.4 W 54 74 29 40 1013.3 1013.3 0.0
15/02:00pm 13.9 3.4 7.4 65 3.2 W 52 65 28 35 1013.3 1013.3 0.0
15/01:30pm 13.1 1.7 7.4 68 2.8 W 57 78 31 42 1013.4 1013.4 0.0
15/01:25pm 13.4 3.4 7.7 68 2.8 W 50 78 27 42 1013.2 1013.2 0.0
15/01:00pm 14.2 3.9 8.2 67 3.0 W 52 65 28 35 1013.5 1013.5 0.0
15/12:30pm 14.5 3.6 7.4 62 3.5 W 54 65 29 35 1013.5 1013.5 0.0
15/12:15pm 13.9 3.0 7.4 65 3.2 W 54 72 29 39 1013.3 1013.3 0.0
15/12:00pm 13.9 3.2 6.6 61 3.5 W 52 67 28 36 1013.6 1013.6 0.0
15/11:30am 14.3 2.6 6.4 59 3.8 W 57 67 31 36 1013.5 1013.5 0.0
15/11:00am 13.6 2.5 6.3 61 3.5 W 54 63 29 34 1013.4 1013.4 0.0
15/10:30am 14.0 2.4 6.5 60 3.6 W 57 67 31 36 1013.2 1013.2 0.0
15/10:00am 13.4 4.0 8.6 73 2.4 W 48 61 26 33 1012.8 1012.8 0.0
15/09:55am 13.0 1.9 8.2 72 2.4 W 56 74 30 40 1012.8 1012.8 0.0
15/09:30am 13.4 1.5 6.8 64 3.2 WSW 59 72 32 39 1012.5 1012.5 0.0
15/09:02am 11.9 1.4 8.7 81 1.6 WSW 54 72 29 39 1012.3 1012.3 0.0
15/09:00am 11.7 0.7 8.5 81 1.6 WSW 56 72 30 39 1012.3 1012.3 1.6
15/08:30am 12.6 0.9 7.7 72 2.4 WSW 59 82 32 44 1011.7 1011.7 1.2
15/08:00am 12.5 -0.5 7.1 69 2.6 WSW 65 85 35 46 1011.0 1011.0 1.2
15/07:30am 12.4 0.8 8.4 76 2.0 W 59 83 32 45 1010.3 1010.3 1.2
15/07:02am 12.8 0.0 6.5 65 3.0 W 63 82 34 44 1009.9 1009.9 0.6
15/07:00am 13.0 0.2 7.9 71 2.5 W 65 82 35 44 1009.9 1009.9 0.6
15/06:30am 12.4 -0.1 7.9 74 2.2 WSW 63 93 34 50 1009.4 1009.4 0.6
15/06:06am 12.9 -0.2 6.9 67 2.9 WSW 65 91 35 49 1008.7 1008.7 0.6
15/06:00am 12.9 0.2 6.9 67 2.9 WSW 63 76 34 41 1008.7 1008.7 0.6
15/05:47am 12.0 -2.1 8.1 77 1.9 WSW 72 95 39 51 1008.6 1008.6 0.6
15/05:44am 12.3 -1.4 8.3 76 2.0 WSW 70 95 38 51 1008.2 1008.2 0.6
15/05:41am 12.9 0.1 8.1 72 2.4 WSW 65 87 35 47 1008.2 1008.2 0.6
15/05:30am 12.7 -0.9 8.0 73 2.3 W 69 80 37 43 1008.1 1008.1 0.6
15/05:00am 12.9 -0.3 6.2 64 3.2 WSW 65 83 35 45 1007.6 1007.6 0.6
15/04:52am 12.4 -0.6 7.2 70 2.5 WSW 65 83 35 45 1007.8 1007.8 0.6
15/04:30am 12.9 -1.3 6.2 64 3.2 WSW 70 85 38 46 1007.1 1007.1 0.6
15/04:00am 12.4 -1.6 6.3 66 2.9 W 69 82 37 44 1006.6 1006.6 0.6
15/03:32am 13.0 -0.6 6.3 64 3.2 W 67 85 36 46 1006.5 1006.5 0.6
15/03:30am 13.0 -0.7 7.3 68 2.8 W 69 85 37 46 1006.6 1006.6 0.6
15/03:00am 13.4 -1.2 6.1 61 3.5 W 72 83 39 45 1006.3 1006.3 0.6
15/02:30am 13.6 0.2 7.0 64 3.2 W 67 80 36 43 1006.1 1006.1 0.6
15/02:00am 13.7 0.5 7.9 68 2.9 W 67 87 36 47 1005.7 1005.7 0.6
15/01:48am 13.5 1.4 7.6 67 2.9 W 61 80 33 43 1005.9 1005.9 0.6
15/01:30am 12.9 -0.5 7.1 68 2.8 W 67 78 36 42 1005.9 1005.9 0.6
15/01:15am 13.1 -0.4 6.7 65 3.1 W 67 85 36 46 1005.7 1005.7 0.6
15/01:00am 13.8 -0.3 6.3 60 3.6 W 70 83 38 45 1005.5 1005.5 0.6
15/12:31am 13.5 0.2 5.7 59 3.7 W 65 83 35 45 1005.0 1005.0 0.6
15/12:30am 13.7 0.3 6.9 63 3.3 W 67 82 36 44 1005.2 1005.2 0.6
15/12:28am 13.7 0.0 7.6 66 3.0 W 69 87 37 47 1005.3 1005.3 0.6
15/12:00am 13.8 0.6 6.3 60 3.6 W 65 76 35 41 1005.1 1005.1 0.6
 
Date/Time
WST
Temp
°C
App
Temp
°C
Dew
Point
°C
Rel
Hum
%
Delta-T
°C
Wind Press
QNH
hPa
Press
MSL
hPa
Rain since
9am
mm
Dir  Spd
km/h
Gust
km/h
Spd
kts
Gust
kts
14/11:30pm 13.3 0.0 7.4 67 2.9 WNW 67 83 36 45 1005.0 1005.0 0.6
14/11:00pm 13.6 0.6 7.0 64 3.2 W 65 80 35 43 1005.1 1005.1 0.6
14/10:30pm 13.4 0.3 8.2 71 2.6 WNW 67 89 36 48 1004.8 1004.8 0.4
14/10:00pm 13.6 0.4 6.1 60 3.6 W 65 78 35 42 1005.0 1005.0 0.4
14/09:30pm 13.1 -0.4 8.1 71 2.5 W 69 89 37 48 1005.1 1005.1 0.4
14/09:26pm 14.2 0.7 6.8 61 3.6 W 67 85 36 46 1005.0 1005.0 0.4
14/09:00pm 14.3 1.8 7.7 64 3.3 W 63 76 34 41 1005.1 1005.1 0.4
14/08:30pm 14.2 2.1 7.8 65 3.2 W 61 80 33 43 1004.7 1004.7 0.4
14/08:00pm 13.5 0.4 6.9 64 3.2 W 65 74 35 40 1004.8 1004.8 0.4
14/07:44pm 12.3 -1.7 8.7 79 1.8 W 72 104 39 56 1004.8 1004.8 0.4
14/07:37pm 12.7 0.0 8.5 75 2.1 W 65 104 35 56 1004.4 1004.4 0.2
14/07:36pm 13.6 1.3 8.4 71 2.6 W 63 104 34 56 1004.3 1004.3 0.2
14/07:30pm 14.3 2.5 7.4 63 3.4 WNW 59 72 32 39 1004.6 1004.6 0.2
14/07:00pm 14.0 1.5 6.1 59 3.8 WNW 61 70 33 38 1004.3 1004.3 0.2
14/06:30pm 14.3 1.3 7.2 62 3.5 WNW 65 78 35 42 1004.2 1004.2 0.2
14/06:14pm 13.2 -0.6 7.7 69 2.7 W 70 87 38 47 1004.4 1004.4 0.2
14/06:03pm 13.2 -0.1 7.5 68 2.8 W 67 91 36 49 1003.9 1003.9 0.2
14/06:00pm 14.6 2.1 5.8 55 4.2 WNW 61 80 33 43 1003.7 1003.7 0.2
14/05:30pm 14.6 2.5 6.3 57 4.0 WNW 59 80 32 43 1003.4 1003.4 0.2
14/05:29pm 14.5 2.5 6.7 59 3.8 WNW 59 80 32 43 1003.4 1003.4 0.2
14/05:00pm 14.6 0.7 6.6 58 3.9 WNW 69 85 37 46 1003.3 1003.3 0.2
14/04:32pm 14.4 1.6 8.0 65 3.2 WNW 65 83 35 45 1003.3 1003.3 0.2
14/04:30pm 14.3 0.5 6.9 61 3.6 WNW 69 83 37 45 1003.1 1003.1 0.2
14/04:00pm 14.3 0.0 7.2 62 3.5 W 72 91 39 49 1002.9 1002.9 0.2
14/03:31pm 15.0 2.1 9.0 67 3.1 WNW 67 91 36 49 1002.2 1002.2 0.2
14/03:30pm 14.9 2.2 8.4 65 3.3 WNW 65 80 35 43 1002.5 1002.5 0.2
14/03:10pm 14.9 2.6 8.6 66 3.2 WNW 63 83 34 45 1002.2 1002.2 0.2
14/03:00pm 15.0 1.9 6.6 57 4.1 WNW 65 76 35 41 1002.0 1002.0 0.2
14/02:30pm 15.3 2.5 8.2 62 3.6 WNW 65 82 35 44 1001.9 1001.9 0.2
14/02:12pm 13.8 0.8 8.7 71 2.6 WNW 67 89 36 48 1001.8 1001.8 0.2
14/02:00pm 14.6 0.7 6.4 58 4.0 WNW 69 83 37 45 1001.7 1001.7 0.2
14/01:30pm 15.3 2.2 6.8 57 4.2 WNW 65 76 35 41 1001.6 1001.6 0.0
14/01:00pm 14.9 1.2 5.7 54 4.4 WNW 67 80 36 43 1001.8 1001.8 0.0
14/12:30pm 15.1 1.1 6.2 55 4.3 WNW 69 80 37 43 1001.7 1001.7 0.0
14/12:15pm 15.2 2.1 6.9 57 4.1 WNW 65 83 35 45 1001.7 1001.7 0.0
14/12:00pm 14.4 1.6 8.2 66 3.1 WNW 65 80 35 43 1001.7 1001.7 0.0
14/11:31am 15.1 2.1 7.2 59 3.9 WNW 65 83 35 45 1001.7 1001.7 0.0
14/11:30am 15.3 2.5 8.0 61 3.7 WNW 65 80 35 43 1001.7 1001.7 0.0
14/11:04am 14.8 2.8 8.0 64 3.4 WNW 61 80 33 43 1001.6 1001.6 0.0
14/11:00am 14.8 2.2 8.7 67 3.1 WNW 65 80 35 43 1001.6 1001.6 0.0
14/10:46am 14.7 2.3 6.5 58 4.0 WNW 61 80 33 43 1001.2 1001.2 0.0
14/10:30am 15.0 2.7 7.1 59 3.9 W 61 72 33 39 1001.0 1001.0 0.0
14/10:00am 14.3 2.8 7.2 62 3.5 W 57 67 31 36 1000.2 1000.2 0.0

Other Formats:

Comma delimited format used in spreadsheet applications
http://www.bom.gov.au/fwo/IDW60801/IDW60801.94601.axf

JavaScript Object Notation format (JSON) in row-major order
http://www.bom.gov.au/fwo/IDW60801/IDW60801.94601.json